Terminal Aerodrome Forecast
Issued by NWS

Home | Current Version | Previous Version | Text Only | Print | Product List | Glossary On
Versions: 1 2 3 4 5 6 7 8 9 10 11 12 13 14 15 16
000
FTUS45 KREV 190632 AAA
TAFCXP
TAF AMD
KCXP 190632Z 1907/2006 20010G20KT P6SM -RA BKN035 OVC070
      WS020/24045KT
     FM191100 22014G23KT 4SM -SHSN BKN050 OVC200 WS020/24045KT
     FM191500 20005KT P6SM VCSH FEW050 OVC100=

USA.gov is the U.S. government's official web portal to all federal, state and local government web resources and services.